sensor_id;sensor_type;location;lat;lon;timestamp;temperature;humidity
11824;DHT22;5969;50.780;7.726;2022-09-12T00:01:56;10.70;99.90
11824;DHT22;5969;50.780;7.726;2022-09-12T00:04:23;10.60;99.90
11824;DHT22;5969;50.780;7.726;2022-09-12T00:06:52;10.60;99.90
11824;DHT22;5969;50.780;7.726;2022-09-12T00:09:19;10.50;99.90
11824;DHT22;5969;50.780;7.726;2022-09-12T00:11:46;10.50;99.90
11824;DHT22;5969;50.780;7.726;2022-09-12T00:14:15;10.40;99.90
11824;DHT22;5969;50.780;7.726;2022-09-12T00:16:43;10.40;99.90
11824;DHT22;5969;50.780;7.726;2022-09-12T00:19:11;10.30;99.90
11824;DHT22;5969;50.780;7.726;2022-09-12T00:21:39;10.30;99.90
11824;DHT22;5969;50.780;7.726;2022-09-12T00:24:07;10.20;99.90
11824;DHT22;5969;50.780;7.726;2022-09-12T00:26:34;10.30;99.90
11824;DHT22;5969;50.780;7.726;2022-09-12T00:29:00;10.20;99.90
11824;DHT22;5969;50.780;7.726;2022-09-12T00:31:27;10.20;99.90
11824;DHT22;5969;50.780;7.726;2022-09-12T00:33:57;10.10;99.90
11824;DHT22;5969;50.780;7.726;2022-09-12T00:36:25;10.10;99.90
11824;DHT22;5969;50.780;7.726;2022-09-12T00:38:53;10.10;99.90
11824;DHT22;5969;50.780;7.726;2022-09-12T00:41:21;10.10;99.90
11824;DHT22;5969;50.780;7.726;2022-09-12T00:43:50;10.10;99.90
11824;DHT22;5969;50.780;7.726;2022-09-12T00:46:29;10.10;99.90
11824;DHT22;5969;50.780;7.726;2022-09-12T00:49:00;10.10;99.90
11824;DHT22;5969;50.780;7.726;2022-09-12T00:51:30;10.10;99.90
11824;DHT22;5969;50.780;7.726;2022-09-12T00:53:59;10.10;99.90
11824;DHT22;5969;50.780;7.726;2022-09-12T00:56:27;10.10;99.90
11824;DHT22;5969;50.780;7.726;2022-09-12T00:58:58;10.10;99.90
11824;DHT22;5969;50.780;7.726;2022-09-12T01:01:27;10.00;99.90
11824;DHT22;5969;50.780;7.726;2022-09-12T01:03:54;10.00;99.90
11824;DHT22;5969;50.780;7.726;2022-09-12T01:06:26;10.00;99.90
11824;DHT22;5969;50.780;7.726;2022-09-12T01:08:55;10.00;99.90
11824;DHT22;5969;50.780;7.726;2022-09-12T01:11:23;9.90;99.90
11824;DHT22;5969;50.780;7.726;2022-09-12T01:13:50;9.90;99.90
11824;DHT22;5969;50.780;7.726;2022-09-12T01:16:17;9.90;99.90
11824;DHT22;5969;50.780;7.726;2022-09-12T01:18:54;9.90;99.90
11824;DHT22;5969;50.780;7.726;2022-09-12T01:21:32;10.00;99.90
11824;DHT22;5969;50.780;7.726;2022-09-12T01:24:32;10.00;99.90
11824;DHT22;5969;50.780;7.726;2022-09-12T01:27:39;10.00;99.90
11824;DHT22;5969;50.780;7.726;2022-09-12T01:30:24;10.10;99.90
11824;DHT22;5969;50.780;7.726;2022-09-12T01:36:10;10.00;99.90
11824;DHT22;5969;50.780;7.726;2022-09-12T01:38:44;10.00;99.90
11824;DHT22;5969;50.780;7.726;2022-09-12T01:41:19;10.00;99.90
11824;DHT22;5969;50.780;7.726;2022-09-12T01:43:51;9.90;99.90
11824;DHT22;5969;50.780;7.726;2022-09-12T01:46:29;9.90;99.90
11824;DHT22;5969;50.780;7.726;2022-09-12T01:49:01;9.90;99.90
11824;DHT22;5969;50.780;7.726;2022-09-12T01:51:35;9.90;99.90
11824;DHT22;5969;50.780;7.726;2022-09-12T01:54:06;10.00;99.90
11824;DHT22;5969;50.780;7.726;2022-09-12T01:56:37;10.00;99.90
11824;DHT22;5969;50.780;7.726;2022-09-12T01:59:09;9.80;99.90
11824;DHT22;5969;50.780;7.726;2022-09-12T02:01:45;9.70;99.90
11824;DHT22;5969;50.780;7.726;2022-09-12T02:04:16;9.60;99.90
11824;DHT22;5969;50.780;7.726;2022-09-12T02:06:47;9.50;99.90
11824;DHT22;5969;50.780;7.726;2022-09-12T02:09:20;9.50;99.90
11824;DHT22;5969;50.780;7.726;2022-09-12T02:11:49;9.40;99.90
11824;DHT22;5969;50.780;7.726;2022-09-12T02:14:21;9.30;99.90
11824;DHT22;5969;50.780;7.726;2022-09-12T02:16:52;9.30;99.90
11824;DHT22;5969;50.780;7.726;2022-09-12T02:19:23;9.30;99.90
11824;DHT22;5969;50.780;7.726;2022-09-12T02:21:54;9.20;99.90
11824;DHT22;5969;50.780;7.726;2022-09-12T02:24:23;9.20;99.90
11824;DHT22;5969;50.780;7.726;2022-09-12T02:26:54;9.20;99.90
11824;DHT22;5969;50.780;7.726;2022-09-12T02:29:23;9.20;99.90
11824;DHT22;5969;50.780;7.726;2022-09-12T02:31:54;9.20;99.90
11824;DHT22;5969;50.780;7.726;2022-09-12T02:34:35;9.20;99.90
11824;DHT22;5969;50.780;7.726;2022-09-12T02:37:13;9.20;99.90
11824;DHT22;5969;50.780;7.726;2022-09-12T02:39:44;9.20;99.90
11824;DHT22;5969;50.780;7.726;2022-09-12T02:42:11;9.10;99.90
11824;DHT22;5969;50.780;7.726;2022-09-12T02:44:39;9.20;99.90
11824;DHT22;5969;50.780;7.726;2022-09-12T02:47:09;9.20;99.90
11824;DHT22;5969;50.780;7.726;2022-09-12T02:49:37;9.20;99.90
11824;DHT22;5969;50.780;7.726;2022-09-12T02:52:04;9.20;99.90
11824;DHT22;5969;50.780;7.726;2022-09-12T02:54:31;9.20;99.90
11824;DHT22;5969;50.780;7.726;2022-09-12T02:56:58;9.20;99.90
11824;DHT22;5969;50.780;7.726;2022-09-12T02:59:25;9.20;99.90
11824;DHT22;5969;50.780;7.726;2022-09-12T03:02:05;9.20;99.90
11824;DHT22;5969;50.780;7.726;2022-09-12T03:04:47;9.20;99.90
11824;DHT22;5969;50.780;7.726;2022-09-12T03:07:30;9.10;99.90
11824;DHT22;5969;50.780;7.726;2022-09-12T03:10:07;9.10;99.90
11824;DHT22;5969;50.780;7.726;2022-09-12T03:12:45;9.00;99.90
11824;DHT22;5969;50.780;7.726;2022-09-12T03:15:25;9.00;99.90
11824;DHT22;5969;50.780;7.726;2022-09-12T03:18:03;8.90;99.90
11824;DHT22;5969;50.780;7.726;2022-09-12T03:20:41;8.80;99.90
11824;DHT22;5969;50.780;7.726;2022-09-12T03:23:16;8.90;99.90
11824;DHT22;5969;50.780;7.726;2022-09-12T03:25:48;8.90;99.90
11824;DHT22;5969;50.780;7.726;2022-09-12T03:28:19;8.90;99.90
11824;DHT22;5969;50.780;7.726;2022-09-12T03:30:48;9.00;99.90
11824;DHT22;5969;50.780;7.726;2022-09-12T03:33:16;9.00;99.90
11824;DHT22;5969;50.780;7.726;2022-09-12T03:35:45;9.00;99.90
11824;DHT22;5969;50.780;7.726;2022-09-12T03:38:13;8.90;99.90
11824;DHT22;5969;50.780;7.726;2022-09-12T03:40:40;8.90;99.90
11824;DHT22;5969;50.780;7.726;2022-09-12T03:43:08;8.90;99.90
11824;DHT22;5969;50.780;7.726;2022-09-12T03:45:35;8.90;99.90
11824;DHT22;5969;50.780;7.726;2022-09-12T03:48:03;8.80;99.90
11824;DHT22;5969;50.780;7.726;2022-09-12T03:50:30;8.80;99.90
11824;DHT22;5969;50.780;7.726;2022-09-12T03:52:59;8.80;99.90
11824;DHT22;5969;50.780;7.726;2022-09-12T03:55:26;8.80;99.90
11824;DHT22;5969;50.780;7.726;2022-09-12T03:57:53;8.80;99.90
11824;DHT22;5969;50.780;7.726;2022-09-12T04:00:20;8.70;99.90
11824;DHT22;5969;50.780;7.726;2022-09-12T04:02:47;8.80;99.90
11824;DHT22;5969;50.780;7.726;2022-09-12T04:05:14;8.80;99.90
11824;DHT22;5969;50.780;7.726;2022-09-12T04:07:41;8.90;99.90
11824;DHT22;5969;50.780;7.726;2022-09-12T04:10:09;8.90;99.90
11824;DHT22;5969;50.780;7.726;2022-09-12T04:12:36;9.00;99.90
11824;DHT22;5969;50.780;7.726;2022-09-12T04:15:04;9.00;99.90
11824;DHT22;5969;50.780;7.726;2022-09-12T04:17:32;9.00;99.90
11824;DHT22;5969;50.780;7.726;2022-09-12T04:19:59;8.90;99.90
11824;DHT22;5969;50.780;7.726;2022-09-12T04:22:27;8.90;99.90
11824;DHT22;5969;50.780;7.726;2022-09-12T04:24:54;8.80;99.90
11824;DHT22;5969;50.780;7.726;2022-09-12T04:27:22;8.80;99.90
11824;DHT22;5969;50.780;7.726;2022-09-12T04:29:49;8.80;99.90
11824;DHT22;5969;50.780;7.726;2022-09-12T04:32:16;8.80;99.90
11824;DHT22;5969;50.780;7.726;2022-09-12T04:34:43;8.70;99.90
11824;DHT22;5969;50.780;7.726;2022-09-12T04:37:10;8.60;99.90
11824;DHT22;5969;50.780;7.726;2022-09-12T04:39:37;8.50;99.90
11824;DHT22;5969;50.780;7.726;2022-09-12T04:42:04;8.50;99.90
11824;DHT22;5969;50.780;7.726;2022-09-12T04:44:32;8.50;99.90
11824;DHT22;5969;50.780;7.726;2022-09-12T04:46:59;8.50;99.90
11824;DHT22;5969;50.780;7.726;2022-09-12T04:49:26;8.60;99.90
11824;DHT22;5969;50.780;7.726;2022-09-12T04:51:53;8.70;99.90
11824;DHT22;5969;50.780;7.726;2022-09-12T04:54:20;8.60;99.90
11824;DHT22;5969;50.780;7.726;2022-09-12T04:56:48;8.60;99.90
11824;DHT22;5969;50.780;7.726;2022-09-12T04:59:17;8.60;99.90
11824;DHT22;5969;50.780;7.726;2022-09-12T05:01:46;8.70;99.90
11824;DHT22;5969;50.780;7.726;2022-09-12T05:04:13;8.70;99.90
11824;DHT22;5969;50.780;7.726;2022-09-12T05:06:40;8.60;99.90
11824;DHT22;5969;50.780;7.726;2022-09-12T05:09:10;8.60;99.90
11824;DHT22;5969;50.780;7.726;2022-09-12T05:11:39;8.60;99.90
11824;DHT22;5969;50.780;7.726;2022-09-12T05:14:07;8.60;99.90
11824;DHT22;5969;50.780;7.726;2022-09-12T05:16:34;8.60;99.90
11824;DHT22;5969;50.780;7.726;2022-09-12T05:19:02;8.60;99.90
11824;DHT22;5969;50.780;7.726;2022-09-12T05:21:29;8.70;99.90
11824;DHT22;5969;50.780;7.726;2022-09-12T05:23:57;8.60;99.90
11824;DHT22;5969;50.780;7.726;2022-09-12T05:26:24;8.60;99.90
11824;DHT22;5969;50.780;7.726;2022-09-12T05:28:52;8.50;99.90
11824;DHT22;5969;50.780;7.726;2022-09-12T05:31:20;8.50;99.90
11824;DHT22;5969;50.780;7.726;2022-09-12T05:33:49;8.50;99.90
11824;DHT22;5969;50.780;7.726;2022-09-12T05:36:19;8.50;99.90
11824;DHT22;5969;50.780;7.726;2022-09-12T05:38:46;8.50;99.90
11824;DHT22;5969;50.780;7.726;2022-09-12T05:41:14;8.60;99.90
11824;DHT22;5969;50.780;7.726;2022-09-12T05:43:42;8.50;99.90
11824;DHT22;5969;50.780;7.726;2022-09-12T05:46:11;8.50;99.90
11824;DHT22;5969;50.780;7.726;2022-09-12T05:48:39;8.60;99.90
11824;DHT22;5969;50.780;7.726;2022-09-12T05:51:08;8.60;99.90
11824;DHT22;5969;50.780;7.726;2022-09-12T05:53:39;8.70;99.90
11824;DHT22;5969;50.780;7.726;2022-09-12T05:56:07;8.80;99.90
11824;DHT22;5969;50.780;7.726;2022-09-12T05:58:35;8.80;99.90
11824;DHT22;5969;50.780;7.726;2022-09-12T06:01:05;8.80;99.90
11824;DHT22;5969;50.780;7.726;2022-09-12T06:03:33;8.80;99.90
11824;DHT22;5969;50.780;7.726;2022-09-12T06:06:04;8.80;99.90
11824;DHT22;5969;50.780;7.726;2022-09-12T06:08:32;8.80;99.90
11824;DHT22;5969;50.780;7.726;2022-09-12T06:11:02;8.80;99.90
11824;DHT22;5969;50.780;7.726;2022-09-12T06:13:30;8.80;99.90
11824;DHT22;5969;50.780;7.726;2022-09-12T06:16:02;8.90;99.90
11824;DHT22;5969;50.780;7.726;2022-09-12T06:18:30;9.00;99.90
11824;DHT22;5969;50.780;7.726;2022-09-12T06:20:56;9.10;99.90
11824;DHT22;5969;50.780;7.726;2022-09-12T06:23:24;9.20;99.90
11824;DHT22;5969;50.780;7.726;2022-09-12T06:25:51;9.30;99.90
11824;DHT22;5969;50.780;7.726;2022-09-12T06:28:19;9.50;99.90
11824;DHT22;5969;50.780;7.726;2022-09-12T06:30:46;9.60;99.90
11824;DHT22;5969;50.780;7.726;2022-09-12T06:33:13;9.80;99.90
11824;DHT22;5969;50.780;7.726;2022-09-12T06:35:40;10.00;99.90
11824;DHT22;5969;50.780;7.726;2022-09-12T06:38:06;10.10;99.90
11824;DHT22;5969;50.780;7.726;2022-09-12T06:40:34;10.20;99.90
11824;DHT22;5969;50.780;7.726;2022-09-12T06:43:07;10.30;99.90
11824;DHT22;5969;50.780;7.726;2022-09-12T06:45:35;10.50;99.90
11824;DHT22;5969;50.780;7.726;2022-09-12T06:48:02;10.50;99.90
11824;DHT22;5969;50.780;7.726;2022-09-12T06:50:30;10.60;99.90
11824;DHT22;5969;50.780;7.726;2022-09-12T06:52:57;10.90;99.90
11824;DHT22;5969;50.780;7.726;2022-09-12T06:55:23;11.20;99.90
11824;DHT22;5969;50.780;7.726;2022-09-12T06:57:50;11.30;99.90
11824;DHT22;5969;50.780;7.726;2022-09-12T07:00:17;11.50;99.90
11824;DHT22;5969;50.780;7.726;2022-09-12T07:02:45;11.70;99.90
11824;DHT22;5969;50.780;7.726;2022-09-12T07:05:13;11.80;99.90
11824;DHT22;5969;50.780;7.726;2022-09-12T07:07:39;11.90;99.90
11824;DHT22;5969;50.780;7.726;2022-09-12T07:10:07;12.00;99.90
11824;DHT22;5969;50.780;7.726;2022-09-12T07:12:36;12.10;99.90
11824;DHT22;5969;50.780;7.726;2022-09-12T07:15:03;12.30;99.90
11824;DHT22;5969;50.780;7.726;2022-09-12T07:17:30;12.40;99.90
11824;DHT22;5969;50.780;7.726;2022-09-12T07:19:58;12.60;99.90
11824;DHT22;5969;50.780;7.726;2022-09-12T07:22:25;12.70;99.90
11824;DHT22;5969;50.780;7.726;2022-09-12T07:24:52;12.90;99.90
11824;DHT22;5969;50.780;7.726;2022-09-12T07:27:20;13.10;99.90
11824;DHT22;5969;50.780;7.726;2022-09-12T07:29:47;13.20;99.90
11824;DHT22;5969;50.780;7.726;2022-09-12T07:32:13;13.30;99.90
11824;DHT22;5969;50.780;7.726;2022-09-12T07:34:40;13.40;99.90
11824;DHT22;5969;50.780;7.726;2022-09-12T07:37:08;13.70;99.90
11824;DHT22;5969;50.780;7.726;2022-09-12T07:39:35;13.80;99.90
11824;DHT22;5969;50.780;7.726;2022-09-12T07:42:02;13.80;99.90
11824;DHT22;5969;50.780;7.726;2022-09-12T07:44:28;14.00;99.90
11824;DHT22;5969;50.780;7.726;2022-09-12T07:46:55;14.10;99.90
11824;DHT22;5969;50.780;7.726;2022-09-12T07:49:22;14.20;99.90
11824;DHT22;5969;50.780;7.726;2022-09-12T07:51:49;14.40;99.90
11824;DHT22;5969;50.780;7.726;2022-09-12T07:54:17;14.60;99.90
11824;DHT22;5969;50.780;7.726;2022-09-12T07:56:44;14.70;99.90
11824;DHT22;5969;50.780;7.726;2022-09-12T07:59:11;14.80;99.90
11824;DHT22;5969;50.780;7.726;2022-09-12T08:01:38;14.80;99.90
11824;DHT22;5969;50.780;7.726;2022-09-12T08:04:06;14.90;99.90
11824;DHT22;5969;50.780;7.726;2022-09-12T08:06:33;15.20;99.90
11824;DHT22;5969;50.780;7.726;2022-09-12T08:09:01;15.30;99.90
11824;DHT22;5969;50.780;7.726;2022-09-12T08:11:30;15.50;99.90
11824;DHT22;5969;50.780;7.726;2022-09-12T08:13:57;15.70;99.90
11824;DHT22;5969;50.780;7.726;2022-09-12T08:16:26;15.80;99.90
11824;DHT22;5969;50.780;7.726;2022-09-12T08:18:54;15.80;99.90
11824;DHT22;5969;50.780;7.726;2022-09-12T08:21:23;16.00;99.90
11824;DHT22;5969;50.780;7.726;2022-09-12T08:23:51;16.20;99.90
11824;DHT22;5969;50.780;7.726;2022-09-12T08:26:18;16.40;99.90
11824;DHT22;5969;50.780;7.726;2022-09-12T08:28:46;16.40;99.90
11824;DHT22;5969;50.780;7.726;2022-09-12T08:31:15;16.40;99.90
11824;DHT22;5969;50.780;7.726;2022-09-12T08:33:42;16.50;99.90
11824;DHT22;5969;50.780;7.726;2022-09-12T08:36:10;16.50;99.90
11824;DHT22;5969;50.780;7.726;2022-09-12T08:38:39;16.60;99.90
11824;DHT22;5969;50.780;7.726;2022-09-12T08:41:10;16.70;99.90
11824;DHT22;5969;50.780;7.726;2022-09-12T08:43:58;16.90;99.90
11824;DHT22;5969;50.780;7.726;2022-09-12T08:46:32;16.90;99.90
11824;DHT22;5969;50.780;7.726;2022-09-12T08:49:02;17.10;99.90
11824;DHT22;5969;50.780;7.726;2022-09-12T08:51:31;17.20;99.90
11824;DHT22;5969;50.780;7.726;2022-09-12T08:53:59;17.40;99.90
11824;DHT22;5969;50.780;7.726;2022-09-12T08:56:28;17.60;99.90
11824;DHT22;5969;50.780;7.726;2022-09-12T08:58:58;17.80;99.90
11824;DHT22;5969;50.780;7.726;2022-09-12T09:01:29;18.00;99.90
11824;DHT22;5969;50.780;7.726;2022-09-12T09:04:21;18.10;99.90
11824;DHT22;5969;50.780;7.726;2022-09-12T09:07:01;18.00;99.90
11824;DHT22;5969;50.780;7.726;2022-09-12T09:09:43;18.00;99.90
11824;DHT22;5969;50.780;7.726;2022-09-12T09:12:21;17.90;99.90
11824;DHT22;5969;50.780;7.726;2022-09-12T09:15:08;18.10;99.90
11824;DHT22;5969;50.780;7.726;2022-09-12T09:17:40;18.20;99.90
11824;DHT22;5969;50.780;7.726;2022-09-12T09:20:17;18.40;99.90
11824;DHT22;5969;50.780;7.726;2022-09-12T09:22:49;18.70;99.90
11824;DHT22;5969;50.780;7.726;2022-09-12T09:25:22;18.90;99.90
11824;DHT22;5969;50.780;7.726;2022-09-12T09:27:55;19.10;99.90
11824;DHT22;5969;50.780;7.726;2022-09-12T09:30:25;19.20;99.90
11824;DHT22;5969;50.780;7.726;2022-09-12T09:32:54;19.30;99.90
11824;DHT22;5969;50.780;7.726;2022-09-12T09:35:28;19.40;99.90
11824;DHT22;5969;50.780;7.726;2022-09-12T09:38:03;19.70;99.90
11824;DHT22;5969;50.780;7.726;2022-09-12T09:40:39;19.90;99.90
11824;DHT22;5969;50.780;7.726;2022-09-12T09:43:17;19.90;99.90
11824;DHT22;5969;50.780;7.726;2022-09-12T09:45:48;19.90;99.90
11824;DHT22;5969;50.780;7.726;2022-09-12T09:48:18;20.10;99.90
11824;DHT22;5969;50.780;7.726;2022-09-12T09:50:46;20.40;99.90
11824;DHT22;5969;50.780;7.726;2022-09-12T09:53:24;20.50;99.90
11824;DHT22;5969;50.780;7.726;2022-09-12T09:55:53;20.70;99.90
11824;DHT22;5969;50.780;7.726;2022-09-12T09:58:28;20.70;99.90
11824;DHT22;5969;50.780;7.726;2022-09-12T10:00:59;20.90;99.90
11824;DHT22;5969;50.780;7.726;2022-09-12T10:03:32;21.10;99.90
11824;DHT22;5969;50.780;7.726;2022-09-12T10:06:01;21.10;99.90
11824;DHT22;5969;50.780;7.726;2022-09-12T10:08:33;21.20;99.90
11824;DHT22;5969;50.780;7.726;2022-09-12T10:11:02;21.20;99.90
11824;DHT22;5969;50.780;7.726;2022-09-12T10:13:34;21.40;99.90
11824;DHT22;5969;50.780;7.726;2022-09-12T10:16:04;21.40;99.90
11824;DHT22;5969;50.780;7.726;2022-09-12T10:18:34;21.30;99.90
11824;DHT22;5969;50.780;7.726;2022-09-12T10:21:01;21.60;99.90
11824;DHT22;5969;50.780;7.726;2022-09-12T10:23:33;21.60;99.90
11824;DHT22;5969;50.780;7.726;2022-09-12T10:26:03;21.60;99.90
11824;DHT22;5969;50.780;7.726;2022-09-12T10:28:33;21.60;99.90
11824;DHT22;5969;50.780;7.726;2022-09-12T10:31:03;21.80;99.90
11824;DHT22;5969;50.780;7.726;2022-09-12T10:33:34;21.80;99.90
11824;DHT22;5969;50.780;7.726;2022-09-12T10:36:03;21.80;99.90
11824;DHT22;5969;50.780;7.726;2022-09-12T10:38:31;22.10;99.90
11824;DHT22;5969;50.780;7.726;2022-09-12T10:41:01;21.90;99.90
11824;DHT22;5969;50.780;7.726;2022-09-12T10:43:34;22.10;99.90
11824;DHT22;5969;50.780;7.726;2022-09-12T10:46:21;22.10;99.90
11824;DHT22;5969;50.780;7.726;2022-09-12T10:48:50;21.90;99.90
11824;DHT22;5969;50.780;7.726;2022-09-12T10:51:26;22.00;99.90
11824;DHT22;5969;50.780;7.726;2022-09-12T10:53:54;21.80;99.90
11824;DHT22;5969;50.780;7.726;2022-09-12T10:56:24;22.00;99.90
11824;DHT22;5969;50.780;7.726;2022-09-12T10:59:06;22.40;99.90
11824;DHT22;5969;50.780;7.726;2022-09-12T11:01:39;22.40;99.90
11824;DHT22;5969;50.780;7.726;2022-09-12T11:04:23;22.30;99.90
11824;DHT22;5969;50.780;7.726;2022-09-12T11:07:03;22.30;99.90
11824;DHT22;5969;50.780;7.726;2022-09-12T11:09:37;22.50;99.90
11824;DHT22;5969;50.780;7.726;2022-09-12T11:12:13;22.60;99.90
11824;DHT22;5969;50.780;7.726;2022-09-12T11:14:59;22.60;99.90
11824;DHT22;5969;50.780;7.726;2022-09-12T11:17:38;22.60;99.90
11824;DHT22;5969;50.780;7.726;2022-09-12T11:20:15;22.50;99.90
11824;DHT22;5969;50.780;7.726;2022-09-12T11:23:04;22.40;99.90
11824;DHT22;5969;50.780;7.726;2022-09-12T11:25:39;22.60;99.90
11824;DHT22;5969;50.780;7.726;2022-09-12T11:31:30;22.60;99.90
11824;DHT22;5969;50.780;7.726;2022-09-12T11:34:08;22.60;99.90
11824;DHT22;5969;50.780;7.726;2022-09-12T11:36:41;22.80;99.90
11824;DHT22;5969;50.780;7.726;2022-09-12T11:39:12;22.90;99.90
11824;DHT22;5969;50.780;7.726;2022-09-12T11:41:41;23.10;99.90
11824;DHT22;5969;50.780;7.726;2022-09-12T11:44:14;22.90;99.90
11824;DHT22;5969;50.780;7.726;2022-09-12T11:46:43;22.80;99.90
11824;DHT22;5969;50.780;7.726;2022-09-12T11:49:23;22.90;99.90
11824;DHT22;5969;50.780;7.726;2022-09-12T11:51:54;22.60;99.90
11824;DHT22;5969;50.780;7.726;2022-09-12T11:54:27;22.60;99.90
11824;DHT22;5969;50.780;7.726;2022-09-12T11:57:04;22.70;99.90
11824;DHT22;5969;50.780;7.726;2022-09-12T11:59:39;22.80;99.90
11824;DHT22;5969;50.780;7.726;2022-09-12T12:02:11;22.70;99.90
11824;DHT22;5969;50.780;7.726;2022-09-12T12:04:53;22.70;99.90
11824;DHT22;5969;50.780;7.726;2022-09-12T12:07:21;22.90;99.90
11824;DHT22;5969;50.780;7.726;2022-09-12T12:09:49;22.90;99.90
11824;DHT22;5969;50.780;7.726;2022-09-12T12:12:21;22.90;99.90
11824;DHT22;5969;50.780;7.726;2022-09-12T12:14:52;23.00;99.90
11824;DHT22;5969;50.780;7.726;2022-09-12T12:17:21;23.00;99.90
11824;DHT22;5969;50.780;7.726;2022-09-12T12:19:58;23.10;99.90
11824;DHT22;5969;50.780;7.726;2022-09-12T12:22:26;23.10;99.90
11824;DHT22;5969;50.780;7.726;2022-09-12T12:24:56;23.10;99.90
11824;DHT22;5969;50.780;7.726;2022-09-12T12:27:44;23.10;99.90
11824;DHT22;5969;50.780;7.726;2022-09-12T12:36:41;23.20;99.90
11824;DHT22;5969;50.780;7.726;2022-09-12T12:46:00;23.30;99.90
11824;DHT22;5969;50.780;7.726;2022-09-12T12:51:41;23.40;99.90
11824;DHT22;5969;50.780;7.726;2022-09-12T12:54:46;23.70;99.90
11824;DHT22;5969;50.780;7.726;2022-09-12T12:57:26;23.60;99.90
11824;DHT22;5969;50.780;7.726;2022-09-12T12:59:56;23.60;99.90
11824;DHT22;5969;50.780;7.726;2022-09-12T13:02:28;23.50;99.90
11824;DHT22;5969;50.780;7.726;2022-09-12T13:04:58;23.70;99.90
11824;DHT22;5969;50.780;7.726;2022-09-12T13:07:32;23.80;99.90
11824;DHT22;5969;50.780;7.726;2022-09-12T13:10:01;23.70;99.90
11824;DHT22;5969;50.780;7.726;2022-09-12T13:12:30;23.60;99.90
11824;DHT22;5969;50.780;7.726;2022-09-12T13:14:59;23.60;99.90
11824;DHT22;5969;50.780;7.726;2022-09-12T13:17:33;23.70;99.90
11824;DHT22;5969;50.780;7.726;2022-09-12T13:20:18;23.90;99.90
11824;DHT22;5969;50.780;7.726;2022-09-12T13:22:49;24.00;99.90
11824;DHT22;5969;50.780;7.726;2022-09-12T13:25:25;24.10;99.90
11824;DHT22;5969;50.780;7.726;2022-09-12T13:28:01;23.90;99.90
11824;DHT22;5969;50.780;7.726;2022-09-12T13:30:30;23.90;99.90
11824;DHT22;5969;50.780;7.726;2022-09-12T13:33:08;24.10;99.90
11824;DHT22;5969;50.780;7.726;2022-09-12T13:35:41;24.40;99.90
11824;DHT22;5969;50.780;7.726;2022-09-12T13:38:17;24.50;99.90
11824;DHT22;5969;50.780;7.726;2022-09-12T13:41:00;24.60;99.90
11824;DHT22;5969;50.780;7.726;2022-09-12T13:43:36;25.70;99.90
11824;DHT22;5969;50.780;7.726;2022-09-12T13:46:05;26.80;99.90
11824;DHT22;5969;50.780;7.726;2022-09-12T13:48:32;27.60;99.90
11824;DHT22;5969;50.780;7.726;2022-09-12T13:51:00;27.70;99.90
11824;DHT22;5969;50.780;7.726;2022-09-12T13:53:31;28.20;99.90
11824;DHT22;5969;50.780;7.726;2022-09-12T13:56:02;28.40;99.90
11824;DHT22;5969;50.780;7.726;2022-09-12T13:58:30;27.70;99.90
11824;DHT22;5969;50.780;7.726;2022-09-12T14:01:05;27.10;99.90
11824;DHT22;5969;50.780;7.726;2022-09-12T14:03:37;26.60;99.90
11824;DHT22;5969;50.780;7.726;2022-09-12T14:06:23;26.80;99.90
11824;DHT22;5969;50.780;7.726;2022-09-12T14:08:54;26.80;99.90
11824;DHT22;5969;50.780;7.726;2022-09-12T14:11:25;27.60;99.90
11824;DHT22;5969;50.780;7.726;2022-09-12T14:13:53;27.90;99.90
11824;DHT22;5969;50.780;7.726;2022-09-12T14:16:20;28.50;99.90
11824;DHT22;5969;50.780;7.726;2022-09-12T14:18:48;29.20;99.00
11824;DHT22;5969;50.780;7.726;2022-09-12T14:21:29;28.80;99.80
11824;DHT22;5969;50.780;7.726;2022-09-12T14:24:00;29.60;99.50
11824;DHT22;5969;50.780;7.726;2022-09-12T14:26:30;28.80;99.90
11824;DHT22;5969;50.780;7.726;2022-09-12T14:28:59;29.20;99.80
11824;DHT22;5969;50.780;7.726;2022-09-12T14:31:29;29.90;98.20
11824;DHT22;5969;50.780;7.726;2022-09-12T14:34:08;30.00;99.30
11824;DHT22;5969;50.780;7.726;2022-09-12T14:36:40;29.80;97.90
11824;DHT22;5969;50.780;7.726;2022-09-12T14:39:18;28.60;98.00
11824;DHT22;5969;50.780;7.726;2022-09-12T14:41:46;29.30;98.10
11824;DHT22;5969;50.780;7.726;2022-09-12T14:44:16;29.20;98.40
11824;DHT22;5969;50.780;7.726;2022-09-12T14:46:45;29.80;97.30
11824;DHT22;5969;50.780;7.726;2022-09-12T14:49:15;28.70;98.60
11824;DHT22;5969;50.780;7.726;2022-09-12T14:51:51;28.90;98.20
11824;DHT22;5969;50.780;7.726;2022-09-12T14:54:37;27.90;97.60
11824;DHT22;5969;50.780;7.726;2022-09-12T14:57:32;27.50;98.40
11824;DHT22;5969;50.780;7.726;2022-09-12T15:00:23;27.80;97.80
11824;DHT22;5969;50.780;7.726;2022-09-12T15:02:51;27.90;98.30
11824;DHT22;5969;50.780;7.726;2022-09-12T15:05:23;28.30;98.40
11824;DHT22;5969;50.780;7.726;2022-09-12T15:07:53;29.20;97.20
11824;DHT22;5969;50.780;7.726;2022-09-12T15:10:25;30.00;98.30
11824;DHT22;5969;50.780;7.726;2022-09-12T15:13:19;31.20;95.60
11824;DHT22;5969;50.780;7.726;2022-09-12T15:15:49;31.30;95.20
11824;DHT22;5969;50.780;7.726;2022-09-12T15:18:16;32.20;96.40
11824;DHT22;5969;50.780;7.726;2022-09-12T15:20:45;32.80;95.70
11824;DHT22;5969;50.780;7.726;2022-09-12T15:23:19;31.40;94.70
11824;DHT22;5969;50.780;7.726;2022-09-12T15:25:48;30.90;95.30
11824;DHT22;5969;50.780;7.726;2022-09-12T15:28:17;30.00;95.40
11824;DHT22;5969;50.780;7.726;2022-09-12T15:30:46;29.40;95.60
11824;DHT22;5969;50.780;7.726;2022-09-12T15:33:14;28.50;96.40
11824;DHT22;5969;50.780;7.726;2022-09-12T15:35:41;28.50;97.40
11824;DHT22;5969;50.780;7.726;2022-09-12T15:38:07;29.10;96.70
11824;DHT22;5969;50.780;7.726;2022-09-12T15:40:34;29.50;96.50
11824;DHT22;5969;50.780;7.726;2022-09-12T15:43:02;29.60;95.50
11824;DHT22;5969;50.780;7.726;2022-09-12T15:45:31;30.10;96.50
11824;DHT22;5969;50.780;7.726;2022-09-12T15:47:58;30.90;95.50
11824;DHT22;5969;50.780;7.726;2022-09-12T15:50:25;30.00;95.50
11824;DHT22;5969;50.780;7.726;2022-09-12T15:52:52;29.40;95.60
11824;DHT22;5969;50.780;7.726;2022-09-12T15:55:20;30.00;96.70
11824;DHT22;5969;50.780;7.726;2022-09-12T15:57:48;29.70;95.50
11824;DHT22;5969;50.780;7.726;2022-09-12T16:00:17;29.80;95.40
11824;DHT22;5969;50.780;7.726;2022-09-12T16:02:44;29.50;95.20
11824;DHT22;5969;50.780;7.726;2022-09-12T16:05:13;28.70;95.90
11824;DHT22;5969;50.780;7.726;2022-09-12T16:07:41;29.70;96.10
11824;DHT22;5969;50.780;7.726;2022-09-12T16:10:13;30.00;95.40
11824;DHT22;5969;50.780;7.726;2022-09-12T16:12:40;29.90;94.40
11824;DHT22;5969;50.780;7.726;2022-09-12T16:15:11;28.60;94.80
11824;DHT22;5969;50.780;7.726;2022-09-12T16:17:39;28.20;96.30
11824;DHT22;5969;50.780;7.726;2022-09-12T16:20:07;28.00;96.30
11824;DHT22;5969;50.780;7.726;2022-09-12T16:22:34;28.40;95.60
11824;DHT22;5969;50.780;7.726;2022-09-12T16:25:01;28.60;95.00
11824;DHT22;5969;50.780;7.726;2022-09-12T16:27:27;28.50;94.90
11824;DHT22;5969;50.780;7.726;2022-09-12T16:29:54;28.10;95.30
11824;DHT22;5969;50.780;7.726;2022-09-12T16:32:21;27.20;96.10
11824;DHT22;5969;50.780;7.726;2022-09-12T16:34:49;27.10;95.80
11824;DHT22;5969;50.780;7.726;2022-09-12T16:37:16;26.70;96.20